Time;durP1;ratioP1;P1;durP2;ratioP2;P2;SDS_P1;SDS_P2;PMS_P1;PMS_P2;Temp;Humidity;BMP_temperature;BMP_pressure;BME280_temperature;BME280_humidity;BME280_pressure;Samples;Min_cycle;Max_cycle;Signal;HPM_P1;HPM_P2
2021/10/08 00:00:09;;;;;;;602.15;43.25;;;7.00;99.90;;;;;;4863722;29;20143;-91
2021/10/08 00:02:35;;;;;;;904.55;52.13;;;7.00;99.90;;;;;;4847913;29;20045;-91
2021/10/08 00:05:02;;;;;;;488.17;40.50;;;7.10;99.90;;;;;;4848049;29;20129;-91
2021/10/08 00:07:27;;;;;;;1136.05;62.88;;;7.10;99.90;;;;;;4863681;29;20051;-91
2021/10/08 00:09:53;;;;;;;1226.20;70.82;;;7.20;99.90;;;;;;4862589;29;20048;-92
2021/10/08 00:12:19;;;;;;;809.50;54.45;;;7.30;99.90;;;;;;4863461;29;20097;-90
2021/10/08 00:14:45;;;;;;;955.75;58.40;;;7.40;99.90;;;;;;4862689;29;20401;-90
2021/10/08 00:17:11;;;;;;;818.03;46.50;;;7.50;99.90;;;;;;4863092;29;20057;-92
2021/10/08 00:19:37;;;;;;;710.85;46.10;;;7.50;99.90;;;;;;4847599;29;20482;-92
2021/10/08 00:22:04;;;;;;;888.40;44.33;;;7.50;99.90;;;;;;4847081;29;20053;-92
2021/10/08 00:24:30;;;;;;;553.08;44.70;;;7.50;99.90;;;;;;4874715;29;20104;-92
2021/10/08 00:26:56;;;;;;;849.80;51.22;;;7.70;99.90;;;;;;4865382;29;20454;-91
2021/10/08 00:29:22;;;;;;;661.17;52.40;;;7.70;99.90;;;;;;4862543;29;20421;-92
2021/10/08 00:31:47;;;;;;;697.70;54.88;;;7.70;99.90;;;;;;4861527;29;20052;-93
2021/10/08 00:34:13;;;;;;;766.03;47.92;;;7.80;99.90;;;;;;4862634;29;20105;-93
2021/10/08 00:36:39;;;;;;;520.30;45.80;;;7.80;99.90;;;;;;4845071;29;20050;-92
2021/10/08 00:39:05;;;;;;;903.03;60.45;;;7.80;99.90;;;;;;4868228;29;20131;-90
2021/10/08 00:41:31;;;;;;;813.47;56.17;;;7.80;99.90;;;;;;4852834;29;20064;-91
2021/10/08 00:43:57;;;;;;;603.80;45.70;;;7.90;99.90;;;;;;4861456;29;20049;-92
2021/10/08 00:46:22;;;;;;;865.88;56.38;;;7.90;99.90;;;;;;4862107;29;20053;-93
2021/10/08 00:48:50;;;;;;;705.67;45.22;;;7.90;99.90;;;;;;4861532;29;20040;-92
2021/10/08 00:51:16;;;;;;;724.42;55.65;;;8.00;99.90;;;;;;4846363;29;20061;-92
2021/10/08 00:53:43;;;;;;;488.35;43.35;;;8.00;99.90;;;;;;4876468;29;20108;-94
2021/10/08 00:56:09;;;;;;;855.05;60.67;;;8.10;99.90;;;;;;4866208;29;20393;-93
2021/10/08 00:58:36;;;;;;;642.15;46.85;;;8.10;99.90;;;;;;4867929;29;20556;-93
2021/10/08 01:01:02;;;;;;;410.00;44.63;;;8.10;99.90;;;;;;4861419;29;20053;-92
2021/10/08 01:03:28;;;;;;;643.40;51.53;;;8.10;99.90;;;;;;4862070;29;20053;-93
2021/10/08 01:05:53;;;;;;;513.83;35.47;;;8.30;99.90;;;;;;4840256;29;20056;-91
2021/10/08 01:08:19;;;;;;;522.72;35.08;;;8.10;99.90;;;;;;4837015;29;20053;-92
2021/10/08 01:10:45;;;;;;;658.55;45.10;;;8.20;99.90;;;;;;4843539;29;20078;-93
2021/10/08 01:13:13;;;;;;;617.28;40.03;;;8.10;99.90;;;;;;4861722;29;20408;-91
2021/10/08 01:15:40;;;;;;;230.68;28.65;;;8.10;99.90;;;;;;4861418;29;20553;-91
2021/10/08 01:18:06;;;;;;;769.63;57.30;;;8.00;99.90;;;;;;4860823;29;20089;-92
2021/10/08 01:20:33;;;;;;;352.63;37.50;;;8.10;99.90;;;;;;4863237;29;20052;-90
2021/10/08 01:23:00;;;;;;;301.10;35.17;;;8.00;99.90;;;;;;4874089;29;20120;-92
2021/10/08 01:25:35;;;;;;;516.63;42.22;;;8.10;99.90;;;;;;4870985;29;20053;-93
2021/10/08 01:28:02;;;;;;;512.33;42.55;;;8.10;99.90;;;;;;4866422;29;20539;-91
2021/10/08 01:30:28;;;;;;;165.77;24.50;;;8.10;99.90;;;;;;4864094;29;20486;-94
2021/10/08 01:32:54;;;;;;;545.40;50.75;;;8.10;99.90;;;;;;4860711;29;20056;-92
2021/10/08 01:35:21;;;;;;;447.08;32.00;;;8.10;99.90;;;;;;4861342;29;20537;-92
2021/10/08 01:37:47;;;;;;;679.05;49.90;;;8.10;99.90;;;;;;4845756;29;20396;-94
2021/10/08 01:40:14;;;;;;;530.67;43.53;;;8.20;99.90;;;;;;4845409;29;20546;-90
2021/10/08 01:42:40;;;;;;;683.92;52.38;;;8.10;99.90;;;;;;4845909;29;20132;-92
2021/10/08 01:45:10;;;;;;;212.73;25.77;;;8.10;99.90;;;;;;4845612;29;20124;-93
2021/10/08 01:47:36;;;;;;;434.02;43.22;;;8.10;99.90;;;;;;4845762;29;20045;-92
2021/10/08 01:50:03;;;;;;;810.55;60.92;;;8.10;99.90;;;;;;4860508;29;20064;-92
2021/10/08 01:52:29;;;;;;;616.05;47.50;;;8.20;99.90;;;;;;4860126;29;20116;-92
2021/10/08 01:54:55;;;;;;;387.40;38.78;;;8.10;99.90;;;;;;4827246;29;20385;-92
2021/10/08 01:57:20;;;;;;;552.70;44.13;;;8.10;99.90;;;;;;4873368;29;20067;-92
2021/10/08 01:59:46;;;;;;;696.97;50.20;;;8.10;99.90;;;;;;4861068;29;20068;-93
2021/10/08 02:02:12;;;;;;;447.55;37.80;;;8.10;99.90;;;;;;4860300;29;20064;-92
2021/10/08 02:04:38;;;;;;;467.75;41.35;;;8.10;99.90;;;;;;4860906;29;20076;-91
2021/10/08 02:07:03;;;;;;;615.22;42.17;;;8.10;99.90;;;;;;4860685;29;20056;-91
2021/10/08 02:09:29;;;;;;;276.67;26.85;;;8.10;99.90;;;;;;4860561;29;20056;-91
2021/10/08 02:11:55;;;;;;;509.13;38.63;;;8.10;99.90;;;;;;4860290;29;20052;-91
2021/10/08 02:14:20;;;;;;;661.28;46.20;;;8.10;99.90;;;;;;4878769;29;20053;-91
2021/10/08 02:16:46;;;;;;;279.60;28.83;;;8.00;99.90;;;;;;4849544;29;20055;-90
2021/10/08 02:19:12;;;;;;;284.13;27.98;;;8.00;99.90;;;;;;4864599;29;20049;-94
2021/10/08 02:21:38;;;;;;;245.15;25.52;;;7.90;99.90;;;;;;4833695;29;20053;-91
2021/10/08 02:24:04;;;;;;;425.00;34.47;;;7.90;99.90;;;;;;4886346;29;20080;-91
2021/10/08 02:26:30;;;;;;;277.65;28.05;;;7.80;99.90;;;;;;4848461;29;20057;-90
2021/10/08 02:28:56;;;;;;;413.42;32.45;;;7.70;99.90;;;;;;4863266;29;20404;-91
2021/10/08 02:31:21;;;;;;;301.48;23.83;;;7.60;99.90;;;;;;4864512;29;20588;-90
2021/10/08 02:33:47;;;;;;;513.75;39.03;;;7.50;99.90;;;;;;4848599;29;20104;-90
2021/10/08 02:36:13;;;;;;;239.20;28.50;;;7.40;99.90;;;;;;4878864;29;20051;-90
2021/10/08 02:38:40;;;;;;;104.75;15.15;;;7.30;99.90;;;;;;4833024;29;20053;-91
2021/10/08 02:41:07;;;;;;;227.70;24.45;;;7.30;99.90;;;;;;4863530;29;20052;-93
2021/10/08 02:43:33;;;;;;;59.53;15.23;;;7.20;99.90;;;;;;4848335;29;20061;-91
2021/10/08 02:46:00;;;;;;;184.18;25.90;;;7.20;99.90;;;;;;4848270;29;20096;-92
2021/10/08 02:48:26;;;;;;;74.82;12.10;;;7.10;99.90;;;;;;4863835;29;20041;-92
2021/10/08 02:50:53;;;;;;;93.63;17.48;;;7.10;99.90;;;;;;4847697;29;20061;-93
2021/10/08 02:53:18;;;;;;;208.68;22.48;;;7.00;99.90;;;;;;4863714;29;20064;-93
2021/10/08 02:55:44;;;;;;;161.20;17.42;;;7.00;99.90;;;;;;4833212;29;20046;-91
2021/10/08 02:58:10;;;;;;;64.97;15.02;;;6.90;99.90;;;;;;4847661;29;20052;-93
2021/10/08 03:00:36;;;;;;;42.55;12.65;;;6.80;99.90;;;;;;4856758;29;20052;-93
2021/10/08 03:03:02;;;;;;;25.77;9.00;;;6.80;99.90;;;;;;4863675;29;20061;-92
2021/10/08 03:05:28;;;;;;;108.55;18.33;;;6.70;99.90;;;;;;4858264;29;20057;-92
2021/10/08 03:07:54;;;;;;;74.72;16.95;;;6.70;99.90;;;;;;4838426;29;20409;-94
2021/10/08 03:10:20;;;;;;;116.25;17.85;;;6.60;99.90;;;;;;4847865;29;20103;-91
2021/10/08 03:12:47;;;;;;;40.35;10.25;;;6.50;99.90;;;;;;4863419;29;20041;-92
2021/10/08 03:15:13;;;;;;;28.98;12.00;;;6.50;99.90;;;;;;4847911;29;20594;-92
2021/10/08 03:17:40;;;;;;;76.72;15.05;;;6.50;99.90;;;;;;4863644;29;20493;-91
2021/10/08 03:20:07;;;;;;;25.33;11.73;;;6.40;99.90;;;;;;4863056;29;20052;-91
2021/10/08 03:22:33;;;;;;;62.38;12.48;;;6.30;99.90;;;;;;4848021;29;20051;-92
2021/10/08 03:24:59;;;;;;;131.48;17.73;;;6.30;99.90;;;;;;4850730;29;20108;-92
2021/10/08 03:27:24;;;;;;;281.40;19.05;;;6.20;99.90;;;;;;4863551;29;20493;-90
2021/10/08 03:29:50;;;;;;;137.27;15.55;;;6.20;99.90;;;;;;4863568;29;20383;-92
2021/10/08 03:32:16;;;;;;;174.52;15.88;;;6.00;99.90;;;;;;4863007;29;20080;-91
2021/10/08 03:34:41;;;;;;;167.25;15.38;;;6.10;99.90;;;;;;4847842;29;20453;-92
2021/10/08 03:37:11;;;;;;;112.65;14.00;;;6.10;99.90;;;;;;4863378;29;20053;-92
2021/10/08 03:39:40;;;;;;;240.00;20.35;;;5.90;99.90;;;;;;4863567;29;20057;-92
2021/10/08 03:42:11;;;;;;;133.90;17.60;;;5.80;99.90;;;;;;4866657;29;20056;-93
2021/10/08 03:44:39;;;;;;;175.30;20.88;;;5.80;99.90;;;;;;4872957;29;20417;-92
2021/10/08 03:47:19;;;;;;;40.30;15.57;;;5.90;99.90;;;;;;4852444;29;20053;-92
2021/10/08 03:49:45;;;;;;;21.92;10.73;;;5.70;99.90;;;;;;4868911;29;20053;-92
2021/10/08 03:52:11;;;;;;;29.17;11.40;;;5.70;99.90;;;;;;4849493;29;20202;-91
2021/10/08 03:54:37;;;;;;;17.45;11.05;;;5.60;99.90;;;;;;4863088;29;20513;-92
2021/10/08 03:57:03;;;;;;;17.48;11.43;;;5.60;99.90;;;;;;4875573;29;20082;-92
2021/10/08 03:59:29;;;;;;;20.17;11.85;;;5.60;99.90;;;;;;4863222;29;20438;-93
2021/10/08 04:01:55;;;;;;;18.10;10.95;;;5.70;99.90;;;;;;4862740;29;20446;-92
2021/10/08 04:04:21;;;;;;;25.00;11.70;;;5.60;99.90;;;;;;4844377;29;20118;-91
2021/10/08 04:06:48;;;;;;;17.83;10.85;;;5.60;99.90;;;;;;4842528;29;20393;-90
2021/10/08 04:09:14;;;;;;;39.78;15.23;;;5.70;99.90;;;;;;4862814;29;20057;-91
2021/10/08 04:11:40;;;;;;;67.72;15.80;;;5.60;99.90;;;;;;4863110;29;20075;-91
2021/10/08 04:14:06;;;;;;;39.83;13.30;;;5.60;99.90;;;;;;4862964;29;20426;-91
2021/10/08 04:16:33;;;;;;;40.67;13.65;;;5.60;99.90;;;;;;4848693;29;20057;-90
2021/10/08 04:18:59;;;;;;;59.80;15.65;;;5.60;99.90;;;;;;4848186;29;20132;-92
2021/10/08 04:21:25;;;;;;;20.73;10.55;;;5.60;99.90;;;;;;4847617;29;20452;-91
2021/10/08 04:23:51;;;;;;;35.72;13.35;;;5.50;99.90;;;;;;4847760;29;20053;-92
2021/10/08 04:26:16;;;;;;;24.40;11.82;;;5.50;99.90;;;;;;4862146;29;20359;-91
2021/10/08 04:28:42;;;;;;;58.78;18.40;;;5.50;99.90;;;;;;4847121;29;20085;-91
2021/10/08 04:31:08;;;;;;;132.52;32.53;;;5.50;99.90;;;;;;4861390;29;20053;-91
2021/10/08 04:33:34;;;;;;;66.45;21.60;;;5.50;99.90;;;;;;4862365;29;20053;-91
2021/10/08 04:36:00;;;;;;;69.68;21.73;;;5.50;99.90;;;;;;4861980;29;20494;-93
2021/10/08 04:38:30;;;;;;;24.48;9.80;;;5.50;99.90;;;;;;4862153;29;20056;-92
2021/10/08 04:40:56;;;;;;;38.40;14.73;;;5.40;99.90;;;;;;4866559;29;20045;-92
2021/10/08 04:43:22;;;;;;;42.03;15.20;;;5.30;99.90;;;;;;4861856;29;20064;-92
2021/10/08 04:45:48;;;;;;;29.92;12.68;;;5.30;99.90;;;;;;4862405;29;20040;-91
2021/10/08 04:48:14;;;;;;;29.10;13.20;;;5.30;99.90;;;;;;4861739;29;20049;-93
2021/10/08 04:50:40;;;;;;;23.95;12.00;;;5.30;99.90;;;;;;4847514;29;20546;-92
2021/10/08 04:53:32;;;;;;;19.80;11.30;;;5.20;99.90;;;;;;4871428;29;20116;-92
2021/10/08 04:55:57;;;;;;;54.55;16.83;;;5.20;99.90;;;;;;4832422;29;20065;-91
2021/10/08 04:58:23;;;;;;;242.48;22.23;;;5.20;99.90;;;;;;4872648;29;20053;-92
2021/10/08 05:00:49;;;;;;;364.92;24.05;;;5.20;99.90;;;;;;4862293;29;20056;-91
2021/10/08 05:03:17;;;;;;;812.90;43.50;;;5.20;99.90;;;;;;4861753;29;20481;-92
2021/10/08 05:05:50;;;;;;;381.58;21.15;;;5.20;99.90;;;;;;4846855;29;20473;-92
2021/10/08 05:08:17;;;;;;;367.80;19.52;;;5.20;99.90;;;;;;4846081;29;20127;-92
2021/10/08 05:10:42;;;;;;;104.53;15.75;;;5.20;99.90;;;;;;4862083;29;20195;-92
2021/10/08 05:13:08;;;;;;;110.43;15.38;;;5.20;99.90;;;;;;4861530;29;20081;-92
2021/10/08 05:15:34;;;;;;;180.05;17.20;;;5.20;99.90;;;;;;4850791;29;20397;-94
2021/10/08 05:18:00;;;;;;;92.65;13.98;;;5.10;99.90;;;;;;4862085;29;20052;-93
2021/10/08 05:20:26;;;;;;;69.97;14.43;;;5.00;99.90;;;;;;4838684;29;20056;-94
2021/10/08 05:22:51;;;;;;;63.10;16.80;;;4.90;99.90;;;;;;4860830;29;20053;-92
2021/10/08 05:25:17;;;;;;;184.52;22.67;;;5.00;99.90;;;;;;4858603;29;20135;-92
2021/10/08 05:27:43;;;;;;;311.33;27.55;;;4.90;99.90;;;;;;4845615;29;20409;-93
2021/10/08 05:30:10;;;;;;;217.30;27.92;;;5.10;99.90;;;;;;4852373;29;20049;-92
2021/10/08 05:32:36;;;;;;;86.60;19.83;;;5.00;99.90;;;;;;4831124;29;20120;-92
2021/10/08 05:35:03;;;;;;;164.25;22.08;;;5.10;99.90;;;;;;4830761;29;20053;-92
2021/10/08 05:37:28;;;;;;;222.82;22.08;;;5.00;99.90;;;;;;4853214;29;20052;-92
2021/10/08 05:39:54;;;;;;;241.95;26.42;;;5.10;99.90;;;;;;4864039;29;20047;-93
2021/10/08 05:42:20;;;;;;;523.33;40.90;;;5.00;99.90;;;;;;4846585;29;20450;-93
2021/10/08 05:44:45;;;;;;;621.20;43.95;;;5.00;99.90;;;;;;4851204;29;20489;-92
2021/10/08 05:47:11;;;;;;;385.52;33.70;;;5.00;99.90;;;;;;4872106;29;20105;-92
2021/10/08 05:49:37;;;;;;;265.60;25.35;;;5.00;99.90;;;;;;4864868;29;20060;-92
2021/10/08 05:52:02;;;;;;;315.20;27.48;;;5.00;99.90;;;;;;4865913;29;20520;-92
2021/10/08 05:54:28;;;;;;;152.55;17.00;;;5.00;99.90;;;;;;4872471;29;20049;-92
2021/10/08 05:56:54;;;;;;;241.38;24.67;;;4.90;99.90;;;;;;4849557;29;20064;-91
2021/10/08 05:59:19;;;;;;;1060.93;65.13;;;5.00;99.90;;;;;;4852320;29;20072;-92
2021/10/08 06:01:45;;;;;;;653.95;48.05;;;5.00;99.90;;;;;;4864891;29;20072;-92
2021/10/08 06:04:11;;;;;;;741.90;52.70;;;5.10;99.90;;;;;;4860488;29;20112;-91
2021/10/08 06:06:37;;;;;;;859.85;68.20;;;5.20;99.90;;;;;;4865385;29;20116;-94
2021/10/08 06:09:03;;;;;;;440.17;38.63;;;5.30;99.90;;;;;;4865557;29;20060;-90
2021/10/08 06:11:29;;;;;;;463.75;36.00;;;5.40;99.90;;;;;;4865329;29;20044;-90
2021/10/08 06:13:56;;;;;;;657.45;49.10;;;5.40;99.90;;;;;;4866076;29;20101;-89
2021/10/08 06:16:22;;;;;;;238.82;29.30;;;5.40;99.90;;;;;;4867223;29;20053;-90
2021/10/08 06:18:48;;;;;;;477.20;40.08;;;5.50;99.90;;;;;;4866582;29;20057;-90
2021/10/08 06:21:14;;;;;;;246.43;27.38;;;5.40;99.90;;;;;;4866186;29;20056;-89
2021/10/08 06:23:39;;;;;;;277.23;30.33;;;5.50;99.90;;;;;;4866046;29;20057;-88
2021/10/08 06:26:06;;;;;;;271.17;26.58;;;5.50;99.90;;;;;;4852245;29;20486;-89
2021/10/08 06:28:31;;;;;;;407.67;37.72;;;5.60;99.90;;;;;;4848224;29;20053;-89
2021/10/08 06:31:25;;;;;;;248.73;29.00;;;5.60;99.90;;;;;;4847944;29;20049;-89
2021/10/08 06:37:14;;;;;;;278.23;31.48;;;5.80;99.90;;;;;;4865701;29;20104;-90
2021/10/08 06:39:39;;;;;;;463.13;48.55;;;5.90;99.90;;;;;;4849989;29;20083;-88
2021/10/08 06:42:05;;;;;;;477.60;47.72;;;5.90;99.90;;;;;;4866177;29;20084;-89
2021/10/08 06:44:32;;;;;;;538.65;52.83;;;6.00;99.90;;;;;;4866164;29;20084;-88
2021/10/08 07:05:00;;;;;;;572.25;62.30;;;6.40;99.90;;;;;;4882432;29;20104;-89
2021/10/08 07:07:27;;;;;;;377.38;50.08;;;6.50;99.90;;;;;;4880294;29;20045;-89
2021/10/08 07:09:53;;;;;;;316.85;46.92;;;6.50;99.90;;;;;;4851020;29;20055;-89
2021/10/08 07:19:53;;;;;;;258.40;37.42;;;6.70;99.90;;;;;;4881595;29;20404;-89
2021/10/08 07:22:19;;;;;;;182.38;42.45;;;6.80;99.90;;;;;;4864170;29;20052;-91
2021/10/08 07:24:45;;;;;;;243.70;48.28;;;6.90;99.90;;;;;;4865419;29;20041;-90
2021/10/08 07:27:11;;;;;;;254.57;47.45;;;6.90;99.90;;;;;;4865066;29;20436;-88
2021/10/08 07:29:37;;;;;;;433.38;65.40;;;6.90;99.90;;;;;;4864873;29;20049;-89
2021/10/08 07:32:05;;;;;;;272.85;54.08;;;7.00;99.90;;;;;;4865339;29;20053;-90
2021/10/08 07:34:31;;;;;;;126.15;39.95;;;7.00;99.90;;;;;;4861767;29;20466;-89
2021/10/08 07:36:57;;;;;;;271.23;58.33;;;7.10;99.90;;;;;;4864858;29;20088;-89
2021/10/08 07:39:23;;;;;;;479.10;71.40;;;7.20;99.90;;;;;;4850397;29;20045;-88
2021/10/08 07:41:49;;;;;;;428.80;67.03;;;7.30;99.90;;;;;;4848562;29;20123;-89
2021/10/08 07:44:15;;;;;;;290.63;61.45;;;7.30;99.90;;;;;;4867436;29;20511;-89
2021/10/08 07:46:40;;;;;;;179.70;49.70;;;7.40;99.90;;;;;;4846451;29;20132;-90
2021/10/08 07:49:06;;;;;;;235.55;56.60;;;7.50;99.90;;;;;;4852143;29;20040;-89
2021/10/08 07:51:32;;;;;;;247.35;55.70;;;7.60;99.90;;;;;;4865354;29;20449;-89
2021/10/08 07:58:21;;;;;;;154.23;47.20;;;7.80;99.90;;;;;;4879855;29;20212;-88
2021/10/08 08:04:35;;;;;;;176.80;54.78;;;8.00;99.90;;;;;;4861286;29;20058;-89
2021/10/08 08:07:20;;;;;;;176.23;54.13;;;8.00;99.90;;;;;;4846150;29;20050;-89
2021/10/08 08:09:46;;;;;;;149.77;50.00;;;8.10;99.90;;;;;;4860207;29;20193;-88
2021/10/08 08:12:12;;;;;;;143.48;49.72;;;8.20;99.90;;;;;;4875523;29;20476;-91
2021/10/08 08:14:37;;;;;;;169.43;52.78;;;8.20;99.90;;;;;;4873537;29;20527;-91
2021/10/08 08:17:03;;;;;;;147.43;51.55;;;8.20;99.90;;;;;;4871655;29;20053;-91
2021/10/08 08:19:29;;;;;;;165.50;55.70;;;8.30;99.90;;;;;;4858230;29;20132;-91
2021/10/08 08:21:54;;;;;;;155.73;53.28;;;8.50;99.90;;;;;;4834326;29;20498;-92
2021/10/08 08:24:20;;;;;;;168.57;54.72;;;8.60;99.90;;;;;;4870931;29;20057;-91
2021/10/08 08:26:46;;;;;;;163.88;54.05;;;8.70;99.90;;;;;;4845731;29;20508;-91
2021/10/08 08:29:11;;;;;;;182.07;57.20;;;8.80;99.90;;;;;;4857352;29;20493;-91
2021/10/08 08:31:37;;;;;;;157.38;53.63;;;8.90;99.90;;;;;;4872116;29;20073;-92
2021/10/08 08:34:04;;;;;;;171.50;58.00;;;9.00;99.90;;;;;;4874386;29;20092;-91
2021/10/08 08:36:30;;;;;;;158.52;53.40;;;9.00;99.90;;;;;;4853330;29;20045;-92
2021/10/08 08:38:59;;;;;;;159.25;52.60;;;9.10;99.90;;;;;;4842020;29;20049;-92
2021/10/08 08:41:25;;;;;;;157.65;52.85;;;9.20;99.90;;;;;;4854245;29;20045;-90
2021/10/08 08:43:52;;;;;;;152.30;52.88;;;9.30;99.90;;;;;;4844111;29;20101;-89
2021/10/08 08:46:18;;;;;;;136.73;50.08;;;9.30;99.90;;;;;;4873261;29;20050;-91
2021/10/08 08:48:44;;;;;;;128.05;49.47;;;9.40;99.90;;;;;;4874460;29;20141;-89
2021/10/08 08:51:09;;;;;;;144.68;51.53;;;9.50;99.90;;;;;;4844822;29;20052;-89
2021/10/08 08:53:35;;;;;;;134.85;48.25;;;9.60;99.90;;;;;;4859484;29;20054;-92
2021/10/08 08:56:02;;;;;;;147.02;52.10;;;9.70;99.90;;;;;;4844443;29;20053;-89
2021/10/08 08:58:28;;;;;;;131.00;47.35;;;9.70;99.90;;;;;;4876359;29;20057;-90
2021/10/08 09:00:59;;;;;;;131.25;48.00;;;9.80;99.90;;;;;;4864089;29;20052;-89
2021/10/08 09:03:25;;;;;;;97.28;40.72;;;9.90;99.90;;;;;;4851125;29;20057;-90
2021/10/08 09:05:51;;;;;;;110.10;44.10;;;10.00;99.90;;;;;;4847898;29;20056;-89
2021/10/08 09:08:18;;;;;;;128.45;47.58;;;10.00;99.90;;;;;;4843548;29;20353;-90
2021/10/08 09:10:46;;;;;;;115.95;44.25;;;10.10;99.90;;;;;;4864224;29;20092;-89
2021/10/08 09:13:14;;;;;;;115.82;43.47;;;10.20;99.90;;;;;;4850956;29;20120;-90
2021/10/08 09:15:46;;;;;;;109.30;42.67;;;10.30;99.90;;;;;;4862208;29;20417;-90
2021/10/08 09:18:14;;;;;;;102.95;41.75;;;10.40;99.90;;;;;;4866502;29;20409;-89
2021/10/08 09:21:09;;;;;;;79.95;37.05;;;10.40;99.90;;;;;;4846662;29;20139;-90
2021/10/08 09:23:46;;;;;;;100.38;39.95;;;10.50;99.90;;;;;;4849507;29;20050;-90
2021/10/08 09:26:25;;;;;;;87.45;38.03;;;10.60;99.90;;;;;;4843950;29;20053;-90
2021/10/08 09:28:56;;;;;;;97.30;41.55;;;10.70;99.90;;;;;;4861498;29;20045;-90
2021/10/08 09:31:27;;;;;;;89.00;39.47;;;10.90;99.90;;;;;;4861438;29;20052;-91
2021/10/08 09:34:19;;;;;;;102.45;40.95;;;11.00;99.90;;;;;;4839779;29;20060;-89
2021/10/08 09:36:51;;;;;;;86.38;37.47;;;11.10;99.90;;;;;;4859837;29;20492;-89
2021/10/08 09:39:22;;;;;;;96.75;39.97;;;11.20;99.90;;;;;;4867886;29;20067;-90
2021/10/08 09:41:59;;;;;;;80.45;35.53;;;11.30;99.90;;;;;;4861063;29;20103;-90
2021/10/08 09:44:27;;;;;;;79.68;36.47;;;11.30;99.90;;;;;;4861146;29;20087;-93
2021/10/08 09:47:07;;;;;;;69.47;32.83;;;11.40;99.90;;;;;;4861141;29;20078;-90
2021/10/08 09:49:33;;;;;;;;;;;11.40;99.90;;;;;;4861089;29;20049;-90
2021/10/08 09:51:58;;;;;;;62.03;29.77;;;11.50;99.90;;;;;;4861036;29;19931;-90
2021/10/08 09:54:27;;;;;;;58.58;30.05;;;11.60;99.90;;;;;;4860821;29;20049;-94
2021/10/08 09:57:00;;;;;;;58.40;29.98;;;11.60;99.90;;;;;;4843130;29;20057;-90
2021/10/08 09:59:39;;;;;;;51.30;27.83;;;11.70;99.90;;;;;;4845316;29;20060;-92
2021/10/08 10:02:05;;;;;;;46.58;25.98;;;11.80;99.90;;;;;;4891994;29;20064;-90
2021/10/08 10:04:52;;;;;;;41.13;23.38;;;11.90;99.90;;;;;;4860251;29;20079;-90
2021/10/08 10:07:20;;;;;;;50.55;26.52;;;12.00;99.90;;;;;;4847264;29;20049;-90
2021/10/08 10:09:47;;;;;;;45.20;24.58;;;12.10;99.90;;;;;;4849896;29;20052;-90
2021/10/08 10:12:14;;;;;;;44.20;23.05;;;12.20;99.90;;;;;;4856331;29;20120;-90
2021/10/08 10:14:43;;;;;;;36.22;22.27;;;12.20;99.90;;;;;;4840957;29;20045;-90
2021/10/08 10:17:09;;;;;;;34.10;20.30;;;12.30;99.90;;;;;;4856347;29;20092;-89
2021/10/08 10:19:43;;;;;;;44.80;22.17;;;12.40;99.90;;;;;;4855979;29;20101;-91
2021/10/08 10:22:14;;;;;;;34.78;21.23;;;12.40;99.90;;;;;;4872890;29;20116;-92
2021/10/08 10:24:42;;;;;;;39.13;23.88;;;12.60;99.90;;;;;;4850176;29;20120;-91
2021/10/08 10:27:09;;;;;;;32.40;20.48;;;12.60;99.90;;;;;;4843781;29;20049;-91
2021/10/08 10:29:37;;;;;;;27.85;19.17;;;12.70;99.90;;;;;;4854859;29;20259;-90
2021/10/08 10:32:06;;;;;;;28.27;19.02;;;12.90;99.90;;;;;;4859092;29;20131;-91
2021/10/08 10:34:34;;;;;;;28.25;18.88;;;12.90;99.90;;;;;;4856801;29;20121;-92
2021/10/08 10:37:00;;;;;;;33.13;21.85;;;13.00;99.90;;;;;;4878570;29;20049;-91
2021/10/08 10:39:25;;;;;;;25.02;18.02;;;13.10;99.90;;;;;;4876385;29;20049;-92
2021/10/08 10:42:00;;;;;;;30.42;19.10;;;13.10;99.90;;;;;;4878778;29;20045;-91
2021/10/08 10:44:35;;;;;;;30.15;19.10;;;13.20;99.90;;;;;;4876250;29;20060;-92
2021/10/08 10:47:30;;;;;;;22.33;16.75;;;13.30;99.90;;;;;;4877453;29;20385;-93
2021/10/08 10:50:13;;;;;;;31.95;19.67;;;13.30;99.90;;;;;;4857086;29;20045;-91
2021/10/08 10:52:51;;;;;;;27.35;18.70;;;13.40;99.90;;;;;;4858381;29;20053;-91
2021/10/08 10:55:17;;;;;;;35.92;17.95;;;13.40;99.90;;;;;;4863819;29;20051;-91
2021/10/08 10:57:55;;;;;;;25.23;17.67;;;13.50;99.90;;;;;;4825093;29;20064;-92
2021/10/08 11:00:30;;;;;;;26.80;17.95;;;13.50;99.90;;;;;;4862057;29;20133;-90
2021/10/08 11:02:59;;;;;;;33.08;21.33;;;13.60;99.90;;;;;;4862012;29;20056;-90
2021/10/08 11:05:26;;;;;;;29.90;16.90;;;13.70;99.90;;;;;;4862933;29;20155;-92
2021/10/08 11:08:15;;;;;;;25.38;18.23;;;13.90;99.90;;;;;;4865194;29;20051;-90
2021/10/08 11:11:01;;;;;;;23.88;18.13;;;13.90;99.90;;;;;;4866295;29;20101;-91
2021/10/08 11:13:29;;;;;;;26.77;18.10;;;14.00;99.90;;;;;;4865780;29;20049;-96
2021/10/08 11:16:10;;;;;;;69.15;37.10;;;14.10;99.90;;;;;;4860283;29;20053;-96
2021/10/08 11:18:51;;;;;;;108.38;56.08;;;14.20;99.90;;;;;;4864838;29;20057;-89
2021/10/08 11:21:34;;;;;;;55.08;28.85;;;14.30;99.90;;;;;;4863331;29;20508;-88
2021/10/08 11:24:13;;;;;;;32.25;16.08;;;14.30;99.90;;;;;;4862679;29;20068;-90
2021/10/08 11:26:38;;;;;;;20.83;14.68;;;14.40;99.90;;;;;;4863774;29;20060;-90
2021/10/08 11:29:04;;;;;;;24.70;17.58;;;14.50;99.90;;;;;;4859466;29;20053;-89
2021/10/08 11:31:30;;;;;;;24.45;15.05;;;14.50;99.90;;;;;;4864205;29;20100;-89
2021/10/08 11:33:56;;;;;;;20.48;14.65;;;14.50;99.90;;;;;;4864178;29;20045;-90
2021/10/08 11:36:24;;;;;;;21.65;15.10;;;14.70;99.90;;;;;;4870614;29;20148;-89
2021/10/08 11:39:14;;;;;;;23.23;17.58;;;14.60;99.90;;;;;;4864504;29;20481;-89
2021/10/08 11:41:42;;;;;;;30.70;15.55;;;14.70;99.90;;;;;;4862218;29;20128;-89
2021/10/08 11:44:29;;;;;;;22.42;14.60;;;14.80;99.90;;;;;;4863445;29;20049;-90
2021/10/08 11:50:11;;;;;;;21.40;14.68;;;14.90;99.90;;;;;;4860851;29;20505;-90
2021/10/08 11:52:44;;;;;;;20.02;14.43;;;14.90;99.90;;;;;;4845667;29;20181;-91
2021/10/08 11:55:25;;;;;;;20.38;13.55;;;15.00;99.90;;;;;;4877138;29;20060;-90
2021/10/08 11:57:57;;;;;;;22.67;14.93;;;15.10;99.90;;;;;;4862280;29;20596;-89
2021/10/08 12:00:26;;;;;;;21.38;15.52;;;15.10;99.90;;;;;;4861320;29;20528;-89
2021/10/08 12:03:10;;;;;;;17.08;14.45;;;15.10;99.90;;;;;;4848031;29;20084;-89
2021/10/08 12:06:05;;;;;;;20.58;15.35;;;15.20;99.90;;;;;;4864357;29;20124;-92
2021/10/08 12:08:34;;;;;;;18.17;14.07;;;15.20;99.90;;;;;;4848854;29;20482;-90
2021/10/08 12:11:07;;;;;;;19.20;14.25;;;15.30;99.90;;;;;;4874353;29;20045;-89
2021/10/08 12:13:54;;;;;;;20.58;15.13;;;15.40;99.90;;;;;;4867174;29;20049;-89
2021/10/08 12:16:22;;;;;;;20.33;13.45;;;15.40;99.90;;;;;;4877139;29;20570;-90
2021/10/08 12:18:56;;;;;;;17.13;13.68;;;15.40;99.90;;;;;;4852846;29;20056;-89
2021/10/08 12:21:50;;;;;;;19.83;14.07;;;15.50;99.90;;;;;;4845763;29;20501;-89
2021/10/08 12:24:20;;;;;;;18.85;13.15;;;15.50;99.90;;;;;;4836666;29;20070;-88
2021/10/08 12:26:54;;;;;;;16.50;10.65;;;15.60;99.90;;;;;;4864082;29;20127;-89
2021/10/08 12:29:21;;;;;;;15.35;12.73;;;15.60;99.90;;;;;;4851071;29;20059;-89
2021/10/08 12:31:48;;;;;;;20.90;13.05;;;15.70;99.90;;;;;;4837337;29;20159;-90
2021/10/08 12:34:31;;;;;;;15.57;12.05;;;15.70;99.90;;;;;;4867531;29;20048;-90
2021/10/08 12:36:57;;;;;;;15.30;12.05;;;15.80;99.90;;;;;;4851404;29;20143;-88
2021/10/08 12:39:23;;;;;;;16.00;13.00;;;15.90;99.90;;;;;;4863332;29;20055;-88
2021/10/08 12:41:57;;;;;;;15.43;11.32;;;16.00;99.90;;;;;;4844433;29;20636;-87
2021/10/08 12:44:25;;;;;;;11.68;10.13;;;16.10;99.90;;;;;;4854706;29;20057;-90
2021/10/08 12:47:12;;;;;;;12.75;10.70;;;16.10;99.90;;;;;;4874640;29;20055;-90
2021/10/08 12:49:50;;;;;;;11.48;9.60;;;16.20;99.90;;;;;;4861894;29;20777;-91
2021/10/08 12:52:30;;;;;;;14.07;9.60;;;16.40;99.90;;;;;;4868479;29;20056;-88
2021/10/08 12:55:08;;;;;;;10.82;9.13;;;16.50;99.90;;;;;;4854531;29;20053;-88
2021/10/08 12:57:35;;;;;;;11.30;9.23;;;16.80;99.90;;;;;;4866730;29;20060;-88
2021/10/08 13:00:02;;;;;;;10.85;8.20;;;17.10;99.90;;;;;;4840952;29;20125;-88
2021/10/08 13:02:46;;;;;;;10.95;8.35;;;17.40;99.90;;;;;;4865071;29;20570;-88
2021/10/08 13:05:13;;;;;;;9.70;8.23;;;17.50;99.90;;;;;;4863800;29;20135;-88
2021/10/08 13:07:40;;;;;;;8.80;7.85;;;17.90;99.90;;;;;;4843575;29;20120;-91
2021/10/08 13:10:11;;;;;;;8.50;7.70;;;18.00;99.90;;;;;;4859428;29;20045;-88
2021/10/08 13:12:55;;;;;;;10.15;7.65;;;18.20;99.90;;;;;;4873006;29;20044;-87
2021/10/08 13:15:27;;;;;;;12.85;7.32;;;18.40;99.90;;;;;;4857344;29;20111;-88